createdAt,value
2022-11-18T00:01:35.828Z,92348.00
2022-11-18T00:04:07.528Z,92346.00
2022-11-18T00:06:34.481Z,92349.00
2022-11-18T00:09:03.903Z,92344.00
2022-11-18T00:14:36.499Z,92352.00
2022-11-18T00:17:06.138Z,92347.00
2022-11-18T00:19:43.352Z,92338.00
2022-11-18T00:22:13.133Z,92333.00
2022-11-18T00:24:40.196Z,92339.00
2022-11-18T00:27:07.160Z,92340.00
2022-11-18T00:29:34.103Z,92331.00
2022-11-18T00:32:03.446Z,92338.00
2022-11-18T00:34:31.628Z,92333.00
2022-11-18T00:36:58.564Z,92325.00
2022-11-18T00:39:28.841Z,92336.00
2022-11-18T00:42:14.170Z,92330.00
2022-11-18T00:44:45.720Z,92328.00
2022-11-18T00:47:15.885Z,92328.00
2022-11-18T00:49:42.874Z,92347.00
2022-11-18T00:52:12.282Z,92339.00
2022-11-18T00:54:39.151Z,92347.00
2022-11-18T00:57:08.531Z,92349.00
2022-11-18T00:59:42.372Z,92343.00
2022-11-18T01:02:11.485Z,92350.00
2022-11-18T01:04:38.530Z,92365.00
2022-11-18T01:07:08.086Z,92352.00
2022-11-18T01:09:35.208Z,92353.00
2022-11-18T01:12:20.415Z,92356.00
2022-11-18T01:14:49.514Z,92367.00
2022-11-18T01:17:17.583Z,92366.00
2022-11-18T01:19:47.157Z,92367.00
2022-11-18T01:22:17.048Z,92369.00
2022-11-18T01:24:49.068Z,92368.00
2022-11-18T01:27:16.085Z,92368.00
2022-11-18T01:29:43.255Z,92376.00
2022-11-18T01:32:24.106Z,92375.00
2022-11-18T01:34:52.173Z,92371.00
2022-11-18T01:37:22.048Z,92382.00
2022-11-18T01:39:48.878Z,92372.00
2022-11-18T01:42:17.783Z,92374.00
2022-11-18T01:45:34.070Z,92384.00
2022-11-18T01:48:20.640Z,92387.00
2022-11-18T01:50:55.677Z,92387.00
2022-11-18T01:53:30.268Z,92374.00
2022-11-18T01:56:05.702Z,92393.00
2022-11-18T01:58:50.407Z,92383.00
2022-11-18T02:01:17.519Z,92394.00
2022-11-18T02:03:46.342Z,92389.00
2022-11-18T02:06:16.296Z,92396.00
2022-11-18T02:08:49.341Z,92407.00
2022-11-18T02:11:37.439Z,92395.00
2022-11-18T02:14:08.199Z,92395.00
2022-11-18T02:17:25.298Z,92401.00
2022-11-18T02:20:28.408Z,92408.00
2022-11-18T02:23:35.571Z,92409.00
2022-11-18T02:26:27.312Z,92403.00
2022-11-18T02:29:06.908Z,92410.00
2022-11-18T02:32:09.838Z,92413.00
2022-11-18T02:34:50.572Z,92407.00
2022-11-18T02:37:32.452Z,92403.00
2022-11-18T02:40:13.035Z,92406.00
2022-11-18T02:42:42.416Z,92405.00
2022-11-18T02:45:17.578Z,92406.00
2022-11-18T02:47:50.847Z,92406.00
2022-11-18T02:50:23.724Z,92410.00
2022-11-18T02:52:55.680Z,92412.00
2022-11-18T02:55:26.058Z,92399.00
2022-11-18T02:57:56.494Z,92413.00
2022-11-18T03:00:23.430Z,92421.00
2022-11-18T03:02:51.077Z,92411.00
2022-11-18T03:05:48.161Z,92418.00
2022-11-18T03:08:23.586Z,92424.00
2022-11-18T03:11:22.555Z,92425.00
2022-11-18T03:14:19.477Z,92428.00
2022-11-18T03:16:59.614Z,92440.00
2022-11-18T03:19:41.269Z,92441.00
2022-11-18T03:22:36.041Z,92449.00
2022-11-18T03:25:08.407Z,92453.00
2022-11-18T03:27:51.346Z,92465.00
2022-11-18T03:30:22.422Z,92474.00
2022-11-18T03:33:01.082Z,92479.00
2022-11-18T03:35:33.190Z,92480.00
2022-11-18T03:38:07.615Z,92484.00
2022-11-18T03:40:38.538Z,92481.00
2022-11-18T03:43:13.302Z,92504.00
2022-11-18T03:45:53.430Z,92499.00
2022-11-18T03:48:27.091Z,92497.00
2022-11-18T03:51:07.479Z,92499.00
2022-11-18T03:53:40.690Z,92508.00
2022-11-18T03:56:17.407Z,92512.00
2022-11-18T03:59:12.063Z,92521.00
2022-11-18T04:01:53.200Z,92534.00
2022-11-18T04:04:21.321Z,92529.00
2022-11-18T04:07:02.407Z,92536.00
2022-11-18T04:09:39.814Z,92529.00
2022-11-18T04:12:13.388Z,92528.00
2022-11-18T04:14:43.756Z,92536.00
2022-11-18T04:17:21.102Z,92532.00
2022-11-18T04:19:50.678Z,92536.00
2022-11-18T04:22:20.235Z,92533.00
2022-11-18T04:24:47.228Z,92536.00
2022-11-18T04:27:14.309Z,92540.00
2022-11-18T04:29:41.257Z,92538.00
2022-11-18T04:32:13.146Z,92539.00
2022-11-18T04:34:40.114Z,92534.00
2022-11-18T04:37:07.122Z,92539.00
2022-11-18T04:39:34.079Z,92543.00
2022-11-18T04:42:01.046Z,92545.00
2022-11-18T04:44:35.761Z,92557.00
2022-11-18T04:47:06.500Z,92544.00
2022-11-18T04:49:34.954Z,92553.00
2022-11-18T04:52:02.211Z,92561.00
2022-11-18T04:54:29.561Z,92545.00
2022-11-18T04:56:59.129Z,92559.00
2022-11-18T04:59:28.723Z,92561.00
2022-11-18T05:01:56.847Z,92566.00
2022-11-18T05:04:30.145Z,92569.00
2022-11-18T05:07:00.951Z,92568.00
2022-11-18T05:09:31.838Z,92563.00
2022-11-18T05:12:18.658Z,92562.00
2022-11-18T05:14:49.988Z,92561.00
2022-11-18T05:17:18.442Z,92566.00
2022-11-18T05:19:48.041Z,92574.00
2022-11-18T05:22:15.837Z,92570.00
2022-11-18T05:24:42.778Z,92568.00
2022-11-18T05:27:09.778Z,92581.00
2022-11-18T05:29:36.747Z,92567.00
2022-11-18T05:32:03.852Z,92574.00
2022-11-18T05:34:30.818Z,92583.00
2022-11-18T05:37:00.753Z,92587.00
2022-11-18T05:39:27.706Z,92580.00
2022-11-18T05:42:13.335Z,92574.00
2022-11-18T05:44:42.558Z,92594.00
2022-11-18T05:47:09.487Z,92593.00
2022-11-18T05:49:36.429Z,92590.00
2022-11-18T05:52:04.024Z,92596.00
2022-11-18T05:54:31.775Z,92595.00
2022-11-18T05:57:03.228Z,92603.00
2022-11-18T05:59:30.915Z,92614.00
2022-11-18T06:02:04.282Z,92621.00
2022-11-18T06:04:46.816Z,92629.00
2022-11-18T06:07:26.653Z,92624.00
2022-11-18T06:10:05.136Z,92619.00
2022-11-18T06:12:40.951Z,92635.00
2022-11-18T06:15:17.605Z,92647.00
2022-11-18T06:18:08.402Z,92639.00
2022-11-18T06:20:38.334Z,92642.00
2022-11-18T06:23:05.606Z,92642.00
2022-11-18T06:25:33.461Z,92619.00
2022-11-18T06:28:04.758Z,92655.00
2022-11-18T06:30:34.005Z,92652.00
2022-11-18T06:33:00.967Z,92660.00
2022-11-18T06:35:30.186Z,92659.00
2022-11-18T06:37:59.557Z,92660.00
2022-11-18T06:40:31.638Z,92657.00
2022-11-18T06:43:27.638Z,92674.00
2022-11-18T06:46:20.512Z,92671.00
2022-11-18T06:48:49.662Z,92672.00
2022-11-18T06:51:17.407Z,92673.00
2022-11-18T06:53:44.491Z,92677.00
2022-11-18T06:56:14.879Z,92681.00
2022-11-18T06:58:44.630Z,92681.00
2022-11-18T07:01:21.622Z,92693.00
2022-11-18T07:03:48.958Z,92698.00
2022-11-18T07:06:23.362Z,92702.00
2022-11-18T07:08:53.301Z,92700.00
2022-11-18T07:11:24.933Z,92700.00
2022-11-18T07:13:52.176Z,92714.00
2022-11-18T07:16:26.030Z,92713.00
2022-11-18T07:18:55.145Z,92718.00
2022-11-18T07:21:28.573Z,92715.00
2022-11-18T07:23:59.185Z,92729.00
2022-11-18T07:26:26.092Z,92729.00
2022-11-18T07:28:54.215Z,92724.00
2022-11-18T07:31:23.678Z,92738.00
2022-11-18T07:33:58.618Z,92746.00
2022-11-18T07:36:35.214Z,92739.00
2022-11-18T07:39:05.243Z,92743.00
2022-11-18T07:41:32.897Z,92749.00
2022-11-18T07:44:02.338Z,92751.00
2022-11-18T07:46:37.606Z,92746.00
2022-11-18T07:49:10.277Z,92755.00
2022-11-18T07:51:40.229Z,92754.00
2022-11-18T07:54:16.235Z,92767.00
2022-11-18T07:56:43.451Z,92781.00
2022-11-18T07:59:10.469Z,92772.00
2022-11-18T08:01:40.114Z,92771.00
2022-11-18T08:04:10.898Z,92777.00
2022-11-18T08:06:39.062Z,92787.00
2022-11-18T08:09:07.745Z,92786.00
2022-11-18T08:11:35.309Z,92778.00
2022-11-18T08:14:02.453Z,92789.00
2022-11-18T08:16:32.165Z,92790.00
2022-11-18T08:19:00.891Z,92797.00
2022-11-18T08:21:28.108Z,92800.00
2022-11-18T08:24:00.977Z,92792.00
2022-11-18T08:26:30.738Z,92806.00
2022-11-18T08:29:00.527Z,92801.00
2022-11-18T08:31:32.270Z,92815.00
2022-11-18T08:34:14.248Z,92807.00
2022-11-18T08:36:41.371Z,92798.00
2022-11-18T08:39:11.110Z,92804.00
2022-11-18T08:41:41.653Z,92807.00
2022-11-18T08:44:13.656Z,92814.00
2022-11-18T08:46:41.552Z,92801.00
2022-11-18T08:49:08.923Z,92810.00
2022-11-18T08:51:37.117Z,92818.00
2022-11-18T08:54:06.626Z,92805.00
2022-11-18T08:56:36.515Z,92812.00
2022-11-18T08:59:03.467Z,92818.00
2022-11-18T09:01:32.577Z,92821.00
2022-11-18T09:03:59.563Z,92813.00
2022-11-18T09:06:26.830Z,92817.00
2022-11-18T09:08:54.269Z,92817.00
2022-11-18T09:11:29.374Z,92817.00
2022-11-18T09:15:06.458Z,92827.00
2022-11-18T09:16:50.334Z,92820.00
2022-11-18T09:19:46.155Z,92828.00
2022-11-18T09:22:06.890Z,92825.00
2022-11-18T09:24:34.044Z,92828.00
2022-11-18T09:27:09.560Z,92825.00
2022-11-18T09:29:41.795Z,92823.00
2022-11-18T09:32:08.757Z,92830.00
2022-11-18T09:34:36.259Z,92830.00
2022-11-18T09:37:06.722Z,92834.00
2022-11-18T09:39:37.606Z,92840.00
2022-11-18T09:42:42.222Z,92843.00
2022-11-18T09:45:33.701Z,92844.00
2022-11-18T09:48:06.464Z,92853.00
2022-11-18T09:50:49.059Z,92852.00
2022-11-18T09:53:25.543Z,92858.00
2022-11-18T09:55:53.856Z,92862.00
2022-11-18T09:58:35.314Z,92866.00
2022-11-18T10:01:07.258Z,92861.00
2022-11-18T10:03:37.278Z,92854.00
2022-11-18T10:06:10.460Z,92860.00
2022-11-18T10:08:59.421Z,92861.00
2022-11-18T10:11:40.232Z,92863.00
2022-11-18T10:14:23.416Z,92873.00
2022-11-18T10:17:02.339Z,92877.00
2022-11-18T10:19:57.420Z,92885.00
2022-11-18T10:22:52.418Z,92886.00
2022-11-18T10:25:19.730Z,92890.00
2022-11-18T10:27:50.234Z,92890.00
2022-11-18T10:30:25.821Z,92890.00
2022-11-18T10:33:02.707Z,92889.00
2022-11-18T10:35:38.623Z,92890.00
2022-11-18T10:38:14.788Z,92895.00
2022-11-18T10:40:50.785Z,92903.00
2022-11-18T10:43:50.967Z,92902.00
2022-11-18T10:46:30.939Z,92894.00
2022-11-18T10:49:17.289Z,92886.00
2022-11-18T10:52:10.553Z,92895.00
2022-11-18T10:54:38.214Z,92901.00
2022-11-18T10:57:25.383Z,92899.00
2022-11-18T11:00:02.782Z,92897.00
2022-11-18T11:02:37.346Z,92897.00
2022-11-18T11:05:28.041Z,92890.00
2022-11-18T11:08:29.460Z,92885.00
2022-11-18T11:11:01.755Z,92883.00
2022-11-18T11:13:31.650Z,92884.00
2022-11-18T11:16:05.223Z,92885.00
2022-11-18T11:18:42.326Z,92875.00
2022-11-18T11:21:22.911Z,92890.00
2022-11-18T11:23:51.846Z,92895.00
2022-11-18T11:30:08.986Z,92896.00
2022-11-18T11:32:41.827Z,92909.00
2022-11-18T11:35:57.121Z,92903.00
2022-11-18T11:38:39.365Z,92901.00
2022-11-18T11:41:26.933Z,92901.00
2022-11-18T11:44:11.570Z,92905.00
2022-11-18T11:47:27.693Z,92922.00
2022-11-18T11:50:14.944Z,92915.00
2022-11-18T11:53:13.709Z,92926.00
2022-11-18T11:56:12.390Z,92924.00
2022-11-18T11:59:01.242Z,92934.00
2022-11-18T12:01:45.365Z,92939.00
2022-11-18T12:04:26.990Z,92937.00
2022-11-18T12:07:00.391Z,92932.00
2022-11-18T12:10:03.062Z,92934.00
2022-11-18T12:12:36.216Z,92930.00
2022-11-18T12:15:46.027Z,92936.00
2022-11-18T12:18:30.818Z,92929.00
2022-11-18T12:20:58.301Z,92938.00
2022-11-18T12:23:30.929Z,92933.00
2022-11-18T12:26:06.437Z,92933.00
2022-11-18T12:28:45.839Z,92937.00
2022-11-18T12:31:18.819Z,92938.00
2022-11-18T12:34:02.920Z,92948.00
2022-11-18T12:36:39.517Z,92939.00
2022-11-18T12:39:26.052Z,92941.00
2022-11-18T12:42:24.141Z,92942.00
2022-11-18T12:44:53.052Z,92948.00
2022-11-18T12:47:51.257Z,92945.00
2022-11-18T12:50:19.778Z,92941.00
2022-11-18T12:53:04.676Z,92944.00
2022-11-18T12:55:45.757Z,92948.00
2022-11-18T12:58:25.313Z,92954.00
2022-11-18T13:01:13.941Z,92948.00
2022-11-18T13:03:43.127Z,92954.00
2022-11-18T13:06:40.408Z,92954.00
2022-11-18T13:09:25.574Z,92945.00
2022-11-18T13:12:02.271Z,92950.00
2022-11-18T13:14:58.643Z,92960.00
2022-11-18T13:17:51.379Z,92959.00
2022-11-18T13:20:39.203Z,92959.00
2022-11-18T13:23:33.706Z,92960.00
2022-11-18T13:26:16.033Z,92968.00
2022-11-18T13:29:15.198Z,92966.00
2022-11-18T13:32:23.247Z,92969.00
2022-11-18T13:34:55.836Z,92965.00
2022-11-18T13:37:25.151Z,92971.00
2022-11-18T13:39:55.571Z,92971.00
2022-11-18T13:42:31.601Z,92974.00
2022-11-18T13:45:01.354Z,92973.00
2022-11-18T13:47:54.248Z,92961.00
2022-11-18T13:50:41.593Z,92975.00
2022-11-18T13:53:27.071Z,92964.00
2022-11-18T13:56:02.379Z,92971.00
2022-11-18T14:01:43.794Z,92958.00
2022-11-18T14:04:25.121Z,92965.00
2022-11-18T14:06:52.154Z,92960.00
2022-11-18T14:09:31.113Z,92955.00
2022-11-18T14:12:00.420Z,92967.00
2022-11-18T14:14:46.617Z,92974.00
2022-11-18T14:17:25.644Z,92975.00
2022-11-18T14:20:08.203Z,92982.00
2022-11-18T14:22:37.659Z,92973.00
2022-11-18T14:25:21.146Z,92985.00
2022-11-18T14:27:54.145Z,92977.00
2022-11-18T14:30:40.449Z,92973.00
2022-11-18T14:33:26.734Z,92981.00
2022-11-18T14:36:15.344Z,92980.00
2022-11-18T14:39:04.437Z,92980.00
2022-11-18T14:41:49.274Z,92985.00
2022-11-18T14:44:23.229Z,92992.00
2022-11-18T14:47:11.350Z,92994.00
2022-11-18T14:49:43.015Z,92993.00
2022-11-18T14:52:10.678Z,92985.00
2022-11-18T14:54:37.611Z,92991.00
2022-11-18T14:57:05.998Z,92988.00
2022-11-18T14:59:35.390Z,92988.00
2022-11-18T15:02:05.430Z,92994.00
2022-11-18T15:04:33.668Z,92995.00
2022-11-18T15:07:02.227Z,93008.00
2022-11-18T15:09:29.168Z,93002.00
2022-11-18T15:11:58.145Z,93005.00
2022-11-18T15:14:25.128Z,93005.00
2022-11-18T15:16:54.420Z,93016.00
2022-11-18T15:19:23.421Z,93016.00
2022-11-18T15:21:54.992Z,93022.00
2022-11-18T15:24:21.917Z,93016.00
2022-11-18T15:26:54.148Z,93016.00
2022-11-18T15:29:28.858Z,93024.00
2022-11-18T15:31:55.738Z,93023.00
2022-11-18T15:34:25.426Z,93030.00
2022-11-18T15:36:52.602Z,93031.00
2022-11-18T15:39:22.021Z,93044.00
2022-11-18T15:41:51.498Z,93039.00
2022-11-18T15:44:18.926Z,93050.00
2022-11-18T15:46:48.171Z,93041.00
2022-11-18T15:49:17.615Z,93033.00
2022-11-18T15:51:45.043Z,93043.00
2022-11-18T15:57:27.082Z,93038.00
2022-11-18T16:04:29.665Z,93024.00
2022-11-18T16:06:58.079Z,93049.00
2022-11-18T16:09:45.178Z,93054.00
2022-11-18T16:12:30.507Z,93059.00
2022-11-18T16:15:17.481Z,93056.00
2022-11-18T16:17:44.721Z,93060.00
2022-11-18T16:20:12.264Z,93069.00
2022-11-18T16:22:39.329Z,93056.00
2022-11-18T16:25:15.388Z,93059.00
2022-11-18T16:28:02.110Z,93068.00
2022-11-18T16:30:51.400Z,93070.00
2022-11-18T16:33:18.415Z,93068.00
2022-11-18T16:35:49.095Z,93068.00
2022-11-18T16:38:18.421Z,93072.00
2022-11-18T16:40:48.369Z,93073.00
2022-11-18T16:43:15.405Z,93069.00
2022-11-18T16:45:54.803Z,93070.00
2022-11-18T16:48:22.727Z,93079.00
2022-11-18T16:51:17.882Z,93081.00
2022-11-18T16:53:52.410Z,93079.00
2022-11-18T16:56:23.993Z,93083.00
2022-11-18T16:58:55.652Z,93085.00
2022-11-18T17:01:29.373Z,93081.00
2022-11-18T17:03:57.955Z,93081.00
2022-11-18T17:06:25.813Z,93079.00
2022-11-18T17:08:53.204Z,93092.00
2022-11-18T17:11:22.584Z,93086.00
2022-11-18T17:13:54.806Z,93091.00
2022-11-18T17:16:27.135Z,93101.00
2022-11-18T17:18:59.067Z,93099.00
2022-11-18T17:21:30.775Z,93109.00
2022-11-18T17:23:58.801Z,93111.00
2022-11-18T17:26:29.110Z,93113.00
2022-11-18T17:28:58.856Z,93109.00
2022-11-18T17:31:30.784Z,93110.00
2022-11-18T17:34:00.443Z,93125.00
2022-11-18T17:36:31.156Z,93120.00
2022-11-18T17:39:00.882Z,93123.00
2022-11-18T17:41:47.445Z,93130.00
2022-11-18T17:44:17.606Z,93126.00
2022-11-18T17:46:45.336Z,93128.00
2022-11-18T17:49:18.603Z,93128.00
2022-11-18T17:51:46.585Z,93128.00
2022-11-18T17:54:14.478Z,93124.00
2022-11-18T17:56:44.196Z,93127.00
2022-11-18T17:59:17.603Z,93138.00
2022-11-18T18:01:45.935Z,93127.00
2022-11-18T18:04:22.598Z,93130.00
2022-11-18T18:06:52.871Z,93138.00
2022-11-18T18:09:22.859Z,93135.00
2022-11-18T18:11:53.861Z,93134.00
2022-11-18T18:14:23.426Z,93134.00
2022-11-18T18:16:53.009Z,93147.00
2022-11-18T18:19:22.470Z,93153.00
2022-11-18T18:21:49.844Z,93152.00
2022-11-18T18:24:21.162Z,93139.00
2022-11-18T18:26:50.912Z,93154.00
2022-11-18T18:29:21.013Z,93146.00
2022-11-18T18:31:50.095Z,93160.00
2022-11-18T18:34:24.028Z,93156.00
2022-11-18T18:36:53.512Z,93162.00
2022-11-18T18:39:23.173Z,93172.00
2022-11-18T18:41:50.230Z,93169.00
2022-11-18T18:44:20.440Z,93173.00
2022-11-18T18:46:47.775Z,93166.00
2022-11-18T18:49:22.179Z,93169.00
2022-11-18T18:51:56.381Z,93174.00
2022-11-18T18:54:26.013Z,93179.00
2022-11-18T18:56:53.035Z,93174.00
2022-11-18T18:59:24.892Z,93174.00
2022-11-18T19:01:54.897Z,93177.00
2022-11-18T19:04:24.224Z,93176.00
2022-11-18T19:06:59.319Z,93164.00
2022-11-18T19:09:29.372Z,93170.00
2022-11-18T19:12:14.849Z,93174.00
2022-11-18T19:14:44.397Z,93162.00
2022-11-18T19:17:12.896Z,93171.00
2022-11-18T19:20:01.938Z,93165.00
2022-11-18T19:22:34.760Z,93160.00
2022-11-18T19:25:02.040Z,93165.00
2022-11-18T19:27:30.124Z,93170.00
2022-11-18T19:29:57.469Z,93175.00
2022-11-18T19:32:24.561Z,93173.00
2022-11-18T19:34:51.699Z,93167.00
2022-11-18T19:37:18.790Z,93180.00
2022-11-18T19:39:45.848Z,93171.00
2022-11-18T19:42:12.876Z,93182.00
2022-11-18T19:44:40.151Z,93190.00
2022-11-18T19:47:08.270Z,93179.00
2022-11-18T19:49:36.499Z,93174.00
2022-11-18T19:52:04.332Z,93184.00
2022-11-18T19:54:31.518Z,93180.00
2022-11-18T19:57:03.722Z,93180.00
2022-11-18T19:59:36.611Z,93189.00
2022-11-18T20:02:13.647Z,93186.00
2022-11-18T20:04:40.619Z,93180.00
2022-11-18T20:07:09.019Z,93186.00
2022-11-18T20:09:38.163Z,93174.00
2022-11-18T20:12:07.908Z,93189.00
2022-11-18T20:14:37.656Z,93178.00
2022-11-18T20:17:05.021Z,93182.00
2022-11-18T20:19:36.848Z,93180.00
2022-11-18T20:22:06.205Z,93190.00
2022-11-18T20:24:38.946Z,93191.00
2022-11-18T20:27:11.452Z,93192.00
2022-11-18T20:29:42.729Z,93192.00
2022-11-18T20:32:19.007Z,93192.00
2022-11-18T20:34:49.857Z,93188.00
2022-11-18T20:37:27.744Z,93200.00
2022-11-18T20:39:57.921Z,93205.00
2022-11-18T20:42:46.464Z,93193.00
2022-11-18T20:45:13.930Z,93201.00
2022-11-18T20:47:41.039Z,93194.00
2022-11-18T20:50:09.621Z,93192.00
2022-11-18T20:52:38.102Z,93199.00
2022-11-18T20:55:08.341Z,93192.00
2022-11-18T20:57:35.305Z,93196.00
2022-11-18T21:00:06.326Z,93202.00
2022-11-18T21:02:34.644Z,93188.00
2022-11-18T21:05:01.587Z,93197.00
2022-11-18T21:07:29.009Z,93195.00
2022-11-18T21:09:56.120Z,93186.00
2022-11-18T21:12:23.100Z,93188.00
2022-11-18T21:14:50.203Z,93189.00
2022-11-18T21:17:17.432Z,93195.00
2022-11-18T21:19:47.420Z,93191.00
2022-11-18T21:22:15.429Z,93207.00
2022-11-18T21:24:42.557Z,93192.00
2022-11-18T21:27:09.744Z,93191.00
2022-11-18T21:29:36.662Z,93208.00
2022-11-18T21:32:03.695Z,93195.00
2022-11-18T21:34:31.070Z,93208.00
2022-11-18T21:36:58.191Z,93205.00
2022-11-18T21:39:28.498Z,93205.00
2022-11-18T21:41:57.033Z,93202.00
2022-11-18T21:44:26.073Z,93197.00
2022-11-18T21:46:53.056Z,93208.00
2022-11-18T21:49:22.865Z,93205.00
2022-11-18T21:51:50.006Z,93214.00
2022-11-18T21:54:19.341Z,93207.00
2022-11-18T21:56:53.742Z,93209.00
2022-11-18T21:59:22.326Z,93215.00
2022-11-18T22:01:49.379Z,93213.00
2022-11-18T22:04:37.234Z,93208.00
2022-11-18T22:07:05.271Z,93217.00
2022-11-18T22:09:36.366Z,93222.00
2022-11-18T22:12:07.828Z,93223.00
2022-11-18T22:14:37.177Z,93225.00
2022-11-18T22:17:07.540Z,93233.00
2022-11-18T22:19:34.682Z,93242.00
2022-11-18T22:22:01.701Z,93232.00
2022-11-18T22:24:30.896Z,93239.00
2022-11-18T22:26:57.837Z,93236.00
2022-11-18T22:29:26.033Z,93237.00
2022-11-18T22:31:53.186Z,93245.00
2022-11-18T22:34:20.085Z,93230.00
2022-11-18T22:36:47.104Z,93234.00
2022-11-18T22:39:14.130Z,93236.00
2022-11-18T22:41:59.333Z,93232.00
2022-11-18T22:44:26.243Z,93229.00
2022-11-18T22:46:53.213Z,93234.00
2022-11-18T22:49:20.352Z,93231.00
2022-11-18T22:51:50.106Z,93240.00
2022-11-18T22:57:08.960Z,93224.00
2022-11-18T22:59:38.259Z,93234.00
2022-11-18T23:02:08.345Z,93233.00
2022-11-18T23:04:35.237Z,93236.00
2022-11-18T23:07:02.437Z,93228.00
2022-11-18T23:09:31.645Z,93220.00
2022-11-18T23:12:17.098Z,93227.00
2022-11-18T23:14:46.584Z,93235.00
2022-11-18T23:17:16.117Z,93233.00
2022-11-18T23:19:43.996Z,93238.00
2022-11-18T23:22:12.025Z,93236.00
2022-11-18T23:24:39.028Z,93234.00
2022-11-18T23:27:05.874Z,93238.00
2022-11-18T23:29:32.851Z,93235.00
2022-11-18T23:32:01.997Z,93232.00
2022-11-18T23:34:33.818Z,93234.00
2022-11-18T23:37:03.220Z,93207.00
2022-11-18T23:39:30.336Z,93229.00
2022-11-18T23:41:57.206Z,93232.00
2022-11-18T23:44:44.002Z,93233.00
2022-11-18T23:47:16.620Z,93223.00
2022-11-18T23:49:43.536Z,93230.00
2022-11-18T23:52:12.920Z,93228.00
2022-11-18T23:54:39.795Z,93220.00
2022-11-18T23:57:06.770Z,93235.00
2022-11-18T23:59:36.181Z,93226.00
